Time;durP1;ratioP1;P1;durP2;ratioP2;P2;SDS_P1;SDS_P2;PMS_P1;PMS_P2;Temp;Humidity;BMP_temperature;BMP_pressure;BME280_temperature;BME280_humidity;BME280_pressure;Samples;Min_cycle;Max_cycle;Signal;HPM_P1;HPM_P2
2023/12/13 00:01:52;;;;;;;1.38;0.90;;;22.00;47.60;;;;;;5120691;27;20039;-53
2023/12/13 00:04:18;;;;;;;1.60;1.10;;;22.00;47.60;;;;;;5120730;28;20281;-53
2023/12/13 00:06:45;;;;;;;0.95;0.77;;;22.00;47.70;;;;;;5122091;28;20051;-56
2023/12/13 00:09:11;;;;;;;1.08;0.90;;;22.00;47.70;;;;;;5120404;27;20052;-50
2023/12/13 00:11:37;;;;;;;0.95;0.77;;;22.00;47.60;;;;;;5121592;28;20263;-56
2023/12/13 00:14:03;;;;;;;0.90;0.70;;;22.00;47.60;;;;;;5119061;27;20054;-51
2023/12/13 00:16:29;;;;;;;1.25;0.82;;;21.90;47.70;;;;;;5120121;28;20059;-55
2023/12/13 00:18:56;;;;;;;1.10;0.88;;;21.90;47.70;;;;;;5120838;28;20057;-54
2023/12/13 00:21:22;;;;;;;1.08;0.80;;;21.90;47.70;;;;;;5117481;28;20089;-52
2023/12/13 00:23:48;;;;;;;1.35;0.90;;;21.90;47.70;;;;;;5118448;27;20030;-50
2023/12/13 00:26:18;;;;;;;0.98;0.90;;;22.00;47.60;;;;;;5121811;28;20601;-53
2023/12/13 00:28:44;;;;;;;6.63;1.55;;;21.90;47.70;;;;;;5118842;28;20054;-54
2023/12/13 00:31:11;;;;;;;5.97;1.13;;;21.90;47.70;;;;;;5120718;27;20030;-51
2023/12/13 00:33:37;;;;;;;1.25;1.00;;;21.90;47.80;;;;;;5119027;27;20032;-51
2023/12/13 00:36:04;;;;;;;1.90;1.00;;;21.90;47.80;;;;;;5119111;27;20036;-56
2023/12/13 00:38:30;;;;;;;2.25;1.00;;;21.90;47.70;;;;;;5120426;27;20031;-56
2023/12/13 00:40:56;;;;;;;1.10;0.80;;;21.90;47.70;;;;;;5114005;28;20028;-51
2023/12/13 00:43:23;;;;;;;1.30;0.88;;;21.90;47.70;;;;;;5117548;27;20031;-55
2023/12/13 00:45:49;;;;;;;1.10;0.85;;;21.90;47.70;;;;;;5112753;28;20105;-52
2023/12/13 00:48:15;;;;;;;0.93;0.83;;;21.90;47.60;;;;;;5116303;28;20051;-55
2023/12/13 00:50:41;;;;;;;1.73;1.17;;;21.80;47.80;;;;;;5113685;27;20024;-54
2023/12/13 00:53:07;;;;;;;2.88;0.90;;;21.90;47.80;;;;;;5113196;28;20028;-55
2023/12/13 00:55:34;;;;;;;1.15;0.85;;;21.90;47.80;;;;;;5117399;27;20120;-55
2023/12/13 00:58:00;;;;;;;3.60;0.80;;;21.90;47.70;;;;;;5116167;28;20035;-55
2023/12/13 01:00:26;;;;;;;2.72;0.85;;;21.90;47.80;;;;;;5118813;27;20032;-57
2023/12/13 01:02:52;;;;;;;5.40;0.95;;;21.80;47.90;;;;;;5120593;28;20091;-53
2023/12/13 01:05:18;;;;;;;6.95;1.23;;;21.80;48.80;;;;;;5115927;27;20031;-47
2023/12/13 01:07:45;;;;;;;4.55;0.90;;;21.90;49.50;;;;;;5118117;28;20035;-53
2023/12/13 01:10:11;;;;;;;7.88;1.15;;;21.90;49.60;;;;;;5120748;28;20057;-47
2023/12/13 01:12:39;;;;;;;6.75;1.00;;;21.90;49.40;;;;;;5119993;27;20550;-47
2023/12/13 01:15:06;;;;;;;6.00;1.20;;;21.90;49.70;;;;;;5100307;28;20091;-55
2023/12/13 01:17:32;;;;;;;2.50;1.02;;;21.90;49.90;;;;;;5117419;28;20015;-49
2023/12/13 01:19:58;;;;;;;5.28;1.33;;;21.90;50.10;;;;;;5118209;27;20032;-54
2023/12/13 01:22:24;;;;;;;6.55;0.90;;;21.90;50.80;;;;;;5117084;28;20047;-51
2023/12/13 01:24:51;;;;;;;3.35;1.00;;;21.90;50.60;;;;;;5120435;27;20046;-44
2023/12/13 01:27:17;;;;;;;11.50;1.48;;;21.90;50.30;;;;;;5117233;28;20489;-42
2023/12/13 01:29:43;;;;;;;5.78;1.20;;;21.90;50.80;;;;;;5115741;27;20047;-43
2023/12/13 01:32:09;;;;;;;4.40;1.27;;;21.90;51.00;;;;;;5117107;27;20050;-43
2023/12/13 01:34:36;;;;;;;5.18;0.95;;;21.90;50.70;;;;;;5117033;28;20031;-42
2023/12/13 01:37:02;;;;;;;3.95;1.10;;;21.90;50.10;;;;;;5117235;28;20019;-41
2023/12/13 01:39:28;;;;;;;1.65;0.95;;;21.90;49.80;;;;;;5119918;28;20058;-43
2023/12/13 01:41:54;;;;;;;12.70;1.60;;;21.80;49.60;;;;;;5112177;27;20055;-42
2023/12/13 01:44:20;;;;;;;10.82;1.55;;;21.80;49.50;;;;;;5118601;27;20057;-43
2023/12/13 01:46:47;;;;;;;5.75;1.35;;;21.80;49.30;;;;;;5120091;28;20020;-42
2023/12/13 01:49:13;;;;;;;4.70;1.13;;;21.80;49.10;;;;;;5120219;28;20717;-46
2023/12/13 01:51:39;;;;;;;4.75;1.42;;;21.70;48.90;;;;;;5100343;28;20097;-40
2023/12/13 01:54:08;;;;;;;2.88;1.40;;;21.70;48.90;;;;;;5116485;28;20056;-40
2023/12/13 01:56:34;;;;;;;2.45;1.25;;;21.60;48.80;;;;;;5099116;28;20024;-41
2023/12/13 01:59:00;;;;;;;2.70;1.00;;;21.60;48.70;;;;;;5120239;28;20031;-40
2023/12/13 02:01:26;;;;;;;3.50;1.10;;;21.60;48.50;;;;;;5101417;28;20380;-41
2023/12/13 02:03:53;;;;;;;2.08;1.00;;;21.50;48.40;;;;;;5101210;28;20027;-40
2023/12/13 02:06:20;;;;;;;2.10;1.17;;;21.50;48.40;;;;;;5116048;28;20034;-40
2023/12/13 02:08:46;;;;;;;6.05;1.33;;;21.50;48.30;;;;;;5118462;27;20046;-40
2023/12/13 02:11:13;;;;;;;1.83;1.00;;;21.50;48.30;;;;;;5119115;28;20042;-41
2023/12/13 02:13:39;;;;;;;2.35;1.27;;;21.40;48.80;;;;;;5119007;28;20038;-40
2023/12/13 02:16:06;;;;;;;2.95;1.30;;;21.40;48.40;;;;;;5101425;28;20036;-40
2023/12/13 02:18:32;;;;;;;2.60;1.15;;;21.40;48.90;;;;;;5099359;28;20028;-41
2023/12/13 02:20:58;;;;;;;4.90;1.40;;;21.30;48.40;;;;;;5119868;28;20036;-37
2023/12/13 02:23:24;;;;;;;6.72;1.40;;;21.30;48.70;;;;;;5117973;27;20439;-39
2023/12/13 02:25:57;;;;;;;7.88;1.60;;;21.30;48.90;;;;;;5119093;28;20034;-37
2023/12/13 02:28:27;;;;;;;4.95;1.40;;;21.20;48.90;;;;;;5120203;28;20102;-51
2023/12/13 02:30:55;;;;;;;5.50;1.40;;;21.20;48.90;;;;;;5115076;28;20027;-45
2023/12/13 02:33:28;;;;;;;4.60;1.10;;;21.20;48.60;;;;;;5113246;28;20023;-44
2023/12/13 02:35:56;;;;;;;2.03;1.40;;;21.20;48.60;;;;;;5118438;28;20036;-50
2023/12/13 02:38:22;;;;;;;3.17;1.02;;;21.20;48.60;;;;;;5113354;28;20060;-44
2023/12/13 02:40:48;;;;;;;3.47;1.15;;;21.10;48.50;;;;;;5113461;28;20068;-44
2023/12/13 02:43:15;;;;;;;2.33;1.48;;;21.10;48.70;;;;;;5110732;27;20028;-46
2023/12/13 02:45:41;;;;;;;2.15;1.10;;;21.10;48.60;;;;;;5119987;28;20504;-45
2023/12/13 02:48:07;;;;;;;1.95;1.23;;;21.00;48.50;;;;;;5123014;27;20051;-45
2023/12/13 02:50:36;;;;;;;3.55;1.25;;;21.10;48.70;;;;;;5114266;28;20048;-45
2023/12/13 02:53:09;;;;;;;3.45;1.30;;;21.00;48.70;;;;;;5118470;28;20034;-44
2023/12/13 02:55:35;;;;;;;2.28;1.20;;;21.00;49.20;;;;;;5116115;28;20024;-44
2023/12/13 02:58:01;;;;;;;2.22;1.42;;;21.00;48.50;;;;;;5113690;28;20035;-46
2023/12/13 03:00:27;;;;;;;1.95;1.10;;;21.00;48.50;;;;;;5115706;28;20023;-45
2023/12/13 03:02:53;;;;;;;2.97;1.40;;;20.90;48.50;;;;;;5112172;28;20028;-46
2023/12/13 03:05:19;;;;;;;1.15;1.05;;;20.90;48.50;;;;;;5114469;28;20036;-46
2023/12/13 03:07:45;;;;;;;1.65;1.33;;;20.90;48.60;;;;;;5108027;28;20039;-44
2023/12/13 03:10:11;;;;;;;1.73;1.23;;;20.90;48.70;;;;;;5109751;28;20058;-45
2023/12/13 03:12:38;;;;;;;1.20;1.10;;;20.90;48.70;;;;;;5110785;28;20081;-45
2023/12/13 03:15:05;;;;;;;2.97;1.40;;;20.90;48.70;;;;;;5100428;28;20087;-45
2023/12/13 03:17:31;;;;;;;2.28;1.38;;;20.90;48.60;;;;;;5107304;28;20067;-45
2023/12/13 03:19:57;;;;;;;2.28;1.40;;;20.90;48.60;;;;;;5105331;28;20032;-44
2023/12/13 03:22:24;;;;;;;1.48;1.38;;;20.90;48.60;;;;;;5111587;28;20091;-45
2023/12/13 03:24:51;;;;;;;3.22;1.33;;;20.90;48.70;;;;;;5101466;28;20034;-43
2023/12/13 03:27:17;;;;;;;1.80;1.70;;;20.90;48.70;;;;;;5111274;28;20057;-44
2023/12/13 03:29:44;;;;;;;1.92;1.20;;;20.90;48.70;;;;;;5108580;28;20046;-43
2023/12/13 03:32:10;;;;;;;1.50;1.33;;;20.80;48.70;;;;;;5113171;28;20028;-46
2023/12/13 03:34:36;;;;;;;1.48;1.20;;;20.80;48.70;;;;;;5117348;28;20050;-45
2023/12/13 03:37:03;;;;;;;2.00;1.60;;;20.80;48.60;;;;;;5110420;28;20075;-46
2023/12/13 03:39:29;;;;;;;2.20;1.52;;;20.80;48.60;;;;;;5117027;28;20032;-46
2023/12/13 03:41:55;;;;;;;2.53;1.38;;;20.80;48.60;;;;;;5114452;28;20492;-45
2023/12/13 03:44:21;;;;;;;3.50;1.50;;;20.80;48.60;;;;;;5119393;28;20020;-41
2023/12/13 03:46:48;;;;;;;2.85;1.50;;;20.80;49.10;;;;;;5115742;28;20041;-46
2023/12/13 03:49:16;;;;;;;4.63;1.80;;;20.80;48.70;;;;;;5118895;28;20035;-43
2023/12/13 03:51:47;;;;;;;4.18;1.60;;;20.80;48.90;;;;;;5121379;28;20032;-44
2023/12/13 03:54:16;;;;;;;1.55;1.40;;;20.80;48.80;;;;;;5115515;28;20039;-45
2023/12/13 03:56:42;;;;;;;1.60;1.50;;;20.80;49.10;;;;;;5120870;28;20067;-43
2023/12/13 03:59:08;;;;;;;3.05;1.50;;;20.80;48.80;;;;;;5122876;27;20043;-43
2023/12/13 04:01:35;;;;;;;2.27;1.67;;;20.80;49.00;;;;;;5120238;28;20031;-47
2023/12/13 04:04:01;;;;;;;1.67;1.58;;;20.70;49.20;;;;;;5118750;28;20281;-41
2023/12/13 04:06:27;;;;;;;5.50;1.58;;;20.70;49.60;;;;;;5118954;28;20038;-44
2023/12/13 04:08:53;;;;;;;4.18;1.70;;;20.70;49.70;;;;;;5116108;28;20035;-40
2023/12/13 04:11:19;;;;;;;2.92;1.67;;;20.70;49.30;;;;;;5120327;28;20042;-42
2023/12/13 04:13:45;;;;;;;1.70;1.60;;;20.70;49.20;;;;;;5121932;28;20028;-41
2023/12/13 04:16:11;;;;;;;2.42;1.83;;;20.70;49.20;;;;;;5124623;27;20027;-41
2023/12/13 04:18:38;;;;;;;2.05;1.55;;;20.70;49.20;;;;;;5115618;28;20039;-40
2023/12/13 04:21:04;;;;;;;2.47;1.73;;;20.70;49.60;;;;;;5118569;28;20028;-41
2023/12/13 04:23:30;;;;;;;3.37;1.73;;;20.70;49.70;;;;;;5113523;28;20042;-41
2023/12/13 04:25:56;;;;;;;2.20;1.80;;;20.70;49.30;;;;;;5111987;28;20028;-40
2023/12/13 04:28:22;;;;;;;5.25;1.92;;;20.70;49.20;;;;;;5119999;28;20418;-40
2023/12/13 04:30:49;;;;;;;2.20;1.70;;;20.70;49.20;;;;;;5122695;28;20039;-40
2023/12/13 04:33:18;;;;;;;1.52;1.42;;;20.70;49.10;;;;;;5124328;27;20027;-42
2023/12/13 04:35:48;;;;;;;5.63;2.05;;;20.70;49.10;;;;;;5115940;28;20053;-40
2023/12/13 04:38:14;;;;;;;3.13;1.85;;;20.70;49.00;;;;;;5122925;27;20127;-39
2023/12/13 04:40:41;;;;;;;3.95;1.73;;;20.70;49.20;;;;;;5118020;27;20758;-41
2023/12/13 04:43:07;;;;;;;2.45;1.80;;;20.70;48.90;;;;;;5113295;28;20043;-40
2023/12/13 04:45:37;;;;;;;1.88;1.52;;;20.70;48.70;;;;;;5115154;28;20039;-40
2023/12/13 04:48:03;;;;;;;2.38;1.70;;;20.70;48.80;;;;;;5119067;28;20052;-39
2023/12/13 04:50:29;;;;;;;2.97;1.90;;;20.70;48.60;;;;;;5119738;27;20034;-40
2023/12/13 04:52:56;;;;;;;2.95;1.90;;;20.70;48.50;;;;;;5120929;27;21166;-40
2023/12/13 04:55:22;;;;;;;1.98;1.73;;;20.70;48.50;;;;;;5119828;28;20083;-40
2023/12/13 04:57:48;;;;;;;2.03;1.70;;;20.70;48.40;;;;;;5120267;28;20071;-41
2023/12/13 05:00:14;;;;;;;3.45;1.50;;;20.80;48.40;;;;;;5119132;28;20028;-40
2023/12/13 05:02:40;;;;;;;1.97;1.77;;;20.80;48.40;;;;;;5119061;28;20032;-41
2023/12/13 05:05:07;;;;;;;2.22;1.75;;;20.90;48.40;;;;;;5119018;27;20103;-41
2023/12/13 05:07:33;;;;;;;2.75;1.50;;;21.00;48.40;;;;;;5116185;28;20091;-41
2023/12/13 05:09:59;;;;;;;4.50;1.65;;;21.00;48.30;;;;;;5120501;28;20052;-40
2023/12/13 05:12:25;;;;;;;3.25;1.55;;;21.10;48.20;;;;;;5119608;27;20067;-41
2023/12/13 05:14:52;;;;;;;3.83;1.45;;;21.20;48.20;;;;;;5119437;28;20031;-41
2023/12/13 05:17:18;;;;;;;2.35;1.60;;;21.20;48.10;;;;;;5119494;28;20106;-42
2023/12/13 05:19:44;;;;;;;2.08;1.63;;;21.30;48.10;;;;;;5120487;27;20119;-41
2023/12/13 05:22:10;;;;;;;1.98;1.70;;;21.40;48.10;;;;;;5117990;28;20031;-41
2023/12/13 05:24:36;;;;;;;2.25;2.05;;;21.40;48.00;;;;;;5117202;27;20023;-41
2023/12/13 05:27:03;;;;;;;1.85;1.58;;;21.50;47.80;;;;;;5116961;28;20035;-40
2023/12/13 05:29:29;;;;;;;2.10;1.50;;;21.60;47.60;;;;;;5117300;28;20088;-43
2023/12/13 05:31:55;;;;;;;1.67;1.58;;;21.60;47.60;;;;;;5120238;27;20082;-40
2023/12/13 05:34:22;;;;;;;1.80;1.55;;;21.70;47.70;;;;;;5120550;28;20057;-41
2023/12/13 05:36:48;;;;;;;2.85;1.77;;;21.80;47.60;;;;;;5120980;28;20051;-40
2023/12/13 05:39:15;;;;;;;1.88;1.45;;;21.80;47.60;;;;;;5120189;28;20034;-41
2023/12/13 05:41:41;;;;;;;2.58;1.80;;;21.90;47.60;;;;;;5118728;28;20055;-42
2023/12/13 05:44:07;;;;;;;2.38;1.40;;;21.90;47.20;;;;;;5120718;28;20845;-41
2023/12/13 05:46:34;;;;;;;1.88;1.55;;;22.00;47.00;;;;;;5119845;28;20027;-41
2023/12/13 05:49:03;;;;;;;2.28;1.60;;;22.10;47.00;;;;;;5118751;28;20046;-41
2023/12/13 05:51:30;;;;;;;2.22;1.55;;;22.10;46.90;;;;;;5129993;27;20064;-41
2023/12/13 05:53:56;;;;;;;2.22;1.73;;;22.20;46.90;;;;;;5120501;28;20063;-41
2023/12/13 05:56:23;;;;;;;3.47;1.85;;;22.20;46.90;;;;;;5116383;28;20032;-41
2023/12/13 05:58:49;;;;;;;2.55;1.85;;;22.30;46.70;;;;;;5118500;28;20071;-40
2023/12/13 06:01:15;;;;;;;2.03;1.80;;;22.30;46.50;;;;;;5117552;28;20601;-40
2023/12/13 06:03:41;;;;;;;2.20;1.60;;;22.40;46.30;;;;;;5114681;28;20027;-41
2023/12/13 06:06:07;;;;;;;3.03;2.00;;;22.40;46.70;;;;;;5114686;28;20036;-41
2023/12/13 06:08:34;;;;;;;5.97;2.20;;;22.40;46.60;;;;;;5113710;28;20040;-41
2023/12/13 06:11:00;;;;;;;3.67;1.90;;;22.40;46.50;;;;;;5115910;27;20030;-40
2023/12/13 06:13:26;;;;;;;2.55;1.80;;;22.40;46.50;;;;;;5114168;27;20031;-40
2023/12/13 06:15:52;;;;;;;2.00;1.80;;;22.30;46.70;;;;;;5114374;28;20027;-41
2023/12/13 06:18:18;;;;;;;2.53;1.83;;;22.30;46.40;;;;;;5117099;27;20058;-41
2023/12/13 06:20:45;;;;;;;2.77;2.07;;;22.20;46.10;;;;;;5116516;28;20057;-41
2023/12/13 06:23:11;;;;;;;1.95;1.73;;;22.20;46.10;;;;;;5114988;28;20058;-41
2023/12/13 06:25:37;;;;;;;2.50;1.92;;;22.10;46.10;;;;;;5113685;28;20059;-41
2023/12/13 06:28:04;;;;;;;2.63;2.03;;;22.10;46.20;;;;;;5115175;28;20074;-41
2023/12/13 06:30:31;;;;;;;2.45;1.90;;;22.00;46.30;;;;;;5116140;28;20023;-41
2023/12/13 06:32:57;;;;;;;1.70;1.60;;;22.00;46.20;;;;;;5117813;28;20801;-41
2023/12/13 06:35:23;;;;;;;2.63;1.98;;;21.90;46.10;;;;;;5112855;28;20031;-42
2023/12/13 06:37:49;;;;;;;2.15;1.95;;;21.90;46.10;;;;;;5117155;28;20038;-42
2023/12/13 06:40:15;;;;;;;2.50;1.92;;;22.00;46.20;;;;;;5111261;28;20024;-41
2023/12/13 06:42:42;;;;;;;2.17;1.88;;;22.00;46.10;;;;;;5116482;28;20024;-42
2023/12/13 06:45:08;;;;;;;2.10;1.77;;;22.00;46.10;;;;;;5116636;28;20771;-42
2023/12/13 06:47:34;;;;;;;2.70;1.85;;;22.10;46.10;;;;;;5112689;28;20047;-42
2023/12/13 06:50:01;;;;;;;2.00;1.80;;;22.10;45.80;;;;;;5111013;28;20028;-42
2023/12/13 06:52:27;;;;;;;2.08;1.67;;;22.20;45.80;;;;;;5115900;28;20034;-47
2023/12/13 06:54:53;;;;;;;2.13;1.92;;;22.20;45.90;;;;;;5116045;28;20042;-39
2023/12/13 06:57:19;;;;;;;2.47;2.10;;;22.30;46.00;;;;;;5115943;28;20027;-40
2023/12/13 06:59:45;;;;;;;2.83;2.30;;;22.30;45.80;;;;;;5116401;28;20113;-42
2023/12/13 07:02:11;;;;;;;2.53;2.15;;;22.30;45.60;;;;;;5118452;28;20027;-43
2023/12/13 07:04:37;;;;;;;2.13;1.92;;;22.30;45.40;;;;;;5118251;28;20028;-41
2023/12/13 07:07:04;;;;;;;2.35;2.00;;;22.40;45.30;;;;;;5113630;28;20104;-42
2023/12/13 07:09:30;;;;;;;2.83;2.00;;;22.40;45.30;;;;;;5114343;28;20035;-42
2023/12/13 07:11:56;;;;;;;2.03;1.75;;;22.50;45.50;;;;;;5113592;28;20115;-42
2023/12/13 07:14:22;;;;;;;2.08;1.90;;;22.50;45.50;;;;;;5096411;28;20080;-42
2023/12/13 07:16:49;;;;;;;2.38;1.80;;;22.60;45.40;;;;;;5117485;28;20046;-43
2023/12/13 07:19:15;;;;;;;2.20;1.90;;;22.60;45.10;;;;;;5116819;28;20034;-41
2023/12/13 07:21:41;;;;;;;2.97;2.05;;;22.70;45.00;;;;;;5115261;28;20024;-42
2023/12/13 07:24:07;;;;;;;2.47;2.00;;;22.70;45.60;;;;;;5116272;28;20031;-42
2023/12/13 07:26:33;;;;;;;2.67;2.08;;;22.70;45.30;;;;;;5102819;28;20023;-42
2023/12/13 07:29:00;;;;;;;5.60;2.30;;;22.60;45.20;;;;;;5120303;28;20070;-40
2023/12/13 07:31:26;;;;;;;2.88;2.08;;;22.60;45.40;;;;;;5121355;28;20083;-41
2023/12/13 07:33:53;;;;;;;4.05;2.05;;;22.50;45.50;;;;;;5116244;27;20099;-40
2023/12/13 07:36:19;;;;;;;2.20;2.00;;;22.50;44.90;;;;;;5121335;28;20187;-42
2023/12/13 07:38:45;;;;;;;2.65;2.03;;;22.40;45.00;;;;;;5120660;28;20035;-41
2023/12/13 07:41:13;;;;;;;2.83;2.27;;;22.40;45.20;;;;;;5121283;27;20038;-42
2023/12/13 07:43:39;;;;;;;4.22;2.15;;;22.30;45.20;;;;;;5100344;28;20288;-42
2023/12/13 07:46:06;;;;;;;3.00;2.25;;;22.20;45.30;;;;;;5119570;28;20036;-42
2023/12/13 07:48:32;;;;;;;2.58;2.13;;;22.20;45.40;;;;;;5119992;28;20091;-44
2023/12/13 07:50:59;;;;;;;2.53;2.03;;;22.10;45.10;;;;;;5121665;28;20035;-43
2023/12/13 07:53:25;;;;;;;;;;;22.10;45.30;;;;;;5119841;27;20027;-43
2023/12/13 07:55:51;;;;;;;2.60;2.00;;;22.10;45.20;;;;;;5118183;27;19939;-42
2023/12/13 07:58:18;;;;;;;5.00;2.03;;;22.10;45.30;;;;;;5120939;28;20044;-44
2023/12/13 08:00:45;;;;;;;2.70;2.13;;;22.10;45.30;;;;;;5120186;28;20106;-43
2023/12/13 08:03:11;;;;;;;2.67;2.05;;;22.20;45.20;;;;;;5119366;27;20027;-41
2023/12/13 08:05:37;;;;;;;2.20;1.95;;;22.20;45.00;;;;;;5120808;27;20666;-45
2023/12/13 08:08:03;;;;;;;2.53;2.00;;;22.30;45.00;;;;;;5118864;27;20031;-42
2023/12/13 08:10:30;;;;;;;3.00;2.17;;;22.30;45.10;;;;;;5118488;28;20031;-42
2023/12/13 08:12:56;;;;;;;2.70;2.10;;;22.30;45.20;;;;;;5118983;27;20091;-42
2023/12/13 08:15:22;;;;;;;2.22;2.03;;;22.40;45.30;;;;;;5121189;28;20027;-42
2023/12/13 08:17:49;;;;;;;3.28;1.60;;;22.40;45.00;;;;;;5118915;28;20040;-43
2023/12/13 08:20:15;;;;;;;1.95;1.75;;;22.50;44.80;;;;;;5120210;27;20039;-41
2023/12/13 08:22:41;;;;;;;3.10;2.08;;;22.50;45.20;;;;;;5116799;28;20036;-41
2023/12/13 08:25:09;;;;;;;2.90;2.15;;;22.50;45.10;;;;;;5120195;28;20031;-41
2023/12/13 08:27:35;;;;;;;2.83;2.35;;;22.50;45.00;;;;;;5118146;28;20032;-42
2023/12/13 08:30:01;;;;;;;2.42;2.10;;;22.40;45.10;;;;;;5121859;27;20598;-42
2023/12/13 08:32:27;;;;;;;2.40;2.20;;;22.40;45.30;;;;;;5118427;28;20023;-41
2023/12/13 08:34:54;;;;;;;2.55;2.08;;;22.40;45.00;;;;;;5120649;28;20043;-41
2023/12/13 08:37:21;;;;;;;2.90;2.03;;;22.30;44.50;;;;;;5119973;28;20024;-42
2023/12/13 08:39:48;;;;;;;3.30;2.40;;;22.20;44.80;;;;;;5120802;28;20035;-41
2023/12/13 08:42:15;;;;;;;2.92;2.10;;;22.20;45.00;;;;;;5118198;28;20036;-41
2023/12/13 08:44:43;;;;;;;2.80;2.25;;;22.10;45.00;;;;;;5119428;28;20051;-43
2023/12/13 08:47:09;;;;;;;2.22;2.00;;;22.10;45.40;;;;;;5121196;28;20047;-42
2023/12/13 08:49:35;;;;;;;2.58;2.15;;;22.00;45.00;;;;;;5119820;28;20044;-42
2023/12/13 08:52:01;;;;;;;2.40;2.20;;;22.00;45.20;;;;;;5119797;28;20024;-42
2023/12/13 08:54:27;;;;;;;3.60;2.80;;;22.00;45.10;;;;;;5119558;27;20043;-41
2023/12/13 08:56:53;;;;;;;3.55;2.33;;;22.00;45.10;;;;;;5122129;28;20028;-43
2023/12/13 08:59:20;;;;;;;3.00;2.33;;;22.00;45.10;;;;;;5121043;28;20045;-41
2023/12/13 09:01:46;;;;;;;2.67;2.15;;;22.10;45.10;;;;;;5119925;28;20125;-42
2023/12/13 09:04:12;;;;;;;2.22;1.90;;;22.10;45.50;;;;;;5120507;28;20038;-42
2023/12/13 09:06:38;;;;;;;2.85;2.22;;;22.20;44.90;;;;;;5120629;28;20032;-42
2023/12/13 09:09:09;;;;;;;2.20;1.90;;;22.20;45.00;;;;;;5119232;28;20035;-42
2023/12/13 09:11:36;;;;;;;2.00;1.70;;;22.20;45.00;;;;;;5120347;28;20460;-44
2023/12/13 09:14:02;;;;;;;5.55;1.95;;;22.30;45.00;;;;;;5118574;28;20040;-43
2023/12/13 09:16:28;;;;;;;3.05;2.10;;;22.30;44.80;;;;;;5120193;28;20500;-43
2023/12/13 09:18:54;;;;;;;2.20;2.00;;;22.40;44.60;;;;;;5117926;28;20055;-43
2023/12/13 09:21:22;;;;;;;2.40;2.17;;;22.40;44.80;;;;;;5117595;28;20053;-43
2023/12/13 09:23:48;;;;;;;;;;;22.50;45.00;;;;;;5120098;28;20051;-44
2023/12/13 09:26:14;;;;;;;2.65;2.10;;;22.50;44.90;;;;;;5119464;28;20008;-42
2023/12/13 09:28:40;;;;;;;2.95;2.65;;;22.40;44.90;;;;;;5117963;28;20163;-42
2023/12/13 09:31:07;;;;;;;2.80;2.17;;;22.40;45.10;;;;;;5102604;28;20024;-44
2023/12/13 09:33:34;;;;;;;3.00;2.03;;;22.30;44.60;;;;;;5117751;28;20140;-44
2023/12/13 09:36:00;;;;;;;3.80;2.50;;;22.30;44.50;;;;;;5116542;28;20096;-44
2023/12/13 09:38:26;;;;;;;3.60;2.95;;;22.20;44.60;;;;;;5116530;27;20051;-42
2023/12/13 09:40:52;;;;;;;2.50;2.30;;;22.20;44.90;;;;;;5119024;28;20035;-43
2023/12/13 09:43:19;;;;;;;2.92;2.10;;;22.10;44.90;;;;;;5118423;28;20036;-43
2023/12/13 09:45:46;;;;;;;3.13;2.33;;;22.00;45.10;;;;;;5118959;28;20031;-44
2023/12/13 09:48:14;;;;;;;2.92;2.30;;;22.00;44.80;;;;;;5082671;28;20047;-44
2023/12/13 09:50:40;;;;;;;3.35;2.47;;;22.00;45.00;;;;;;5116931;27;20116;-45
2023/12/13 09:53:07;;;;;;;2.55;2.10;;;22.00;44.90;;;;;;5115520;28;20122;-44
2023/12/13 09:55:35;;;;;;;2.50;1.98;;;22.00;44.90;;;;;;5117243;28;20066;-41
2023/12/13 09:58:01;;;;;;;2.83;2.08;;;22.00;44.90;;;;;;5117196;27;20035;-45
2023/12/13 10:00:27;;;;;;;2.90;2.10;;;22.10;45.00;;;;;;5113221;28;20053;-43
2023/12/13 10:02:53;;;;;;;27.67;3.25;;;22.10;44.70;;;;;;5117770;28;20035;-42
2023/12/13 10:05:19;;;;;;;17.17;2.90;;;22.20;44.90;;;;;;5120229;28;20019;-43
2023/12/13 10:07:45;;;;;;;14.77;2.80;;;22.20;45.20;;;;;;5109392;28;20035;-43
2023/12/13 10:10:12;;;;;;;11.35;3.35;;;22.30;45.20;;;;;;5112616;28;20028;-43
2023/12/13 10:13:01;;;;;;;14.95;3.08;;;22.30;45.20;;;;;;5033047;28;21039;-42
2023/12/13 10:15:32;;;;;;;6.28;2.60;;;22.30;45.10;;;;;;5035507;28;20045;-44
2023/12/13 10:17:59;;;;;;;3.42;2.10;;;22.40;44.70;;;;;;5035441;28;20038;-40
2023/12/13 10:20:26;;;;;;;6.38;2.60;;;22.50;44.80;;;;;;5029826;28;20041;-40
2023/12/13 10:22:53;;;;;;;4.80;2.28;;;22.50;45.00;;;;;;5029024;28;20033;-41
2023/12/13 10:25:20;;;;;;;6.17;2.93;;;22.50;44.80;;;;;;5017648;28;20049;-41
2023/12/13 10:27:46;;;;;;;;;;;22.40;44.90;;;;;;5029319;28;20030;-41
2023/12/13 10:30:12;;;;;;;4.85;2.47;;;22.40;44.90;;;;;;5033683;28;19996;-41
2023/12/13 10:32:40;;;;;;;5.32;2.50;;;22.40;44.90;;;;;;5029144;28;20056;-41
2023/12/13 10:35:07;;;;;;;3.75;2.33;;;22.30;44.30;;;;;;5032220;28;20040;-41
2023/12/13 10:37:34;;;;;;;3.03;2.07;;;22.30;44.50;;;;;;5030101;28;20033;-41
2023/12/13 10:40:00;;;;;;;3.05;2.38;;;22.20;44.70;;;;;;5033470;28;20365;-41
2023/12/13 10:42:26;;;;;;;3.15;2.63;;;22.10;44.70;;;;;;5019671;28;20116;-42
2023/12/13 10:44:53;;;;;;;2.83;2.20;;;22.10;44.90;;;;;;5035387;28;20037;-42
2023/12/13 10:47:26;;;;;;;3.13;2.45;;;22.00;44.80;;;;;;5035713;28;20792;-42
2023/12/13 10:49:53;;;;;;;3.10;2.50;;;22.00;44.40;;;;;;5069843;28;20055;-41
2023/12/13 10:52:20;;;;;;;3.20;2.35;;;21.90;44.70;;;;;;5101936;28;20027;-41
2023/12/13 10:54:48;;;;;;;3.67;2.50;;;21.80;44.80;;;;;;5099242;28;20039;-40
2023/12/13 10:57:14;;;;;;;4.43;2.60;;;21.80;44.90;;;;;;5119088;28;20022;-42
2023/12/13 10:59:41;;;;;;;2.33;1.75;;;21.80;45.10;;;;;;5117431;28;20099;-41
2023/12/13 11:02:08;;;;;;;3.10;2.40;;;21.80;44.80;;;;;;5116909;28;20515;-42
2023/12/13 11:04:35;;;;;;;3.03;2.55;;;21.80;45.00;;;;;;5117442;28;20088;-41
2023/12/13 11:07:03;;;;;;;3.83;2.53;;;21.80;45.10;;;;;;5114656;28;20051;-42
2023/12/13 11:09:29;;;;;;;3.20;2.30;;;21.80;45.10;;;;;;5116765;28;20501;-43
2023/12/13 11:11:59;;;;;;;3.03;2.60;;;21.80;45.10;;;;;;5117505;28;20023;-44
2023/12/13 11:14:28;;;;;;;3.38;2.33;;;21.70;45.30;;;;;;5100640;28;20664;-43
2023/12/13 11:16:54;;;;;;;4.60;2.55;;;21.70;45.10;;;;;;5118431;28;20043;-43
2023/12/13 11:19:25;;;;;;;2.60;2.17;;;21.60;44.80;;;;;;5095261;28;20031;-42
2023/12/13 11:21:51;;;;;;;2.95;2.40;;;21.60;45.00;;;;;;5116871;28;20175;-42
2023/12/13 11:24:23;;;;;;;3.33;2.38;;;21.60;45.20;;;;;;5117831;28;20099;-42
2023/12/13 11:26:50;;;;;;;3.92;2.42;;;21.50;45.40;;;;;;5115503;28;20036;-44
2023/12/13 11:29:33;;;;;;;2.58;2.25;;;21.40;45.40;;;;;;5117529;28;20046;-43
2023/12/13 11:32:05;;;;;;;2.63;2.17;;;21.40;45.40;;;;;;5118484;28;20036;-42
2023/12/13 11:34:42;;;;;;;3.00;2.28;;;21.40;45.50;;;;;;5117854;28;20020;-41
2023/12/13 11:37:09;;;;;;;3.78;2.50;;;21.50;45.40;;;;;;5107634;28;20139;-43
2023/12/13 11:39:35;;;;;;;;;;;21.50;45.40;;;;;;5112606;28;20075;-41
2023/12/13 11:42:03;;;;;;;4.45;2.30;;;21.60;45.50;;;;;;5109403;28;19907;-41
2023/12/13 11:44:29;;;;;;;3.38;2.50;;;21.60;45.40;;;;;;5107548;27;20050;-41
2023/12/13 11:47:00;;;;;;;3.17;2.17;;;21.70;45.60;;;;;;5117245;28;20044;-42
2023/12/13 11:49:26;;;;;;;4.47;2.97;;;21.70;45.70;;;;;;5111804;28;20595;-41
2023/12/13 11:51:53;;;;;;;3.28;2.33;;;21.70;45.50;;;;;;5114535;28;20036;-40
2023/12/13 11:54:19;;;;;;;2.60;2.17;;;21.70;45.50;;;;;;5099717;28;20043;-41
2023/12/13 11:56:45;;;;;;;2.83;2.40;;;21.60;45.40;;;;;;5113086;28;20074;-41
2023/12/13 11:59:11;;;;;;;2.97;2.33;;;21.60;45.70;;;;;;5120562;28;20027;-39
2023/12/13 12:01:38;;;;;;;3.22;2.80;;;21.60;45.10;;;;;;5108770;28;20039;-39
2023/12/13 12:04:04;;;;;;;3.03;2.47;;;21.60;45.10;;;;;;5107678;28;20031;-39
2023/12/13 12:06:30;;;;;;;5.72;2.50;;;21.50;45.20;;;;;;5104691;28;20028;-41
2023/12/13 12:08:59;;;;;;;3.83;2.75;;;21.50;45.20;;;;;;5102519;28;20048;-41
2023/12/13 12:11:25;;;;;;;3.88;2.35;;;21.40;45.20;;;;;;5111894;28;20029;-41
2023/12/13 12:13:52;;;;;;;3.47;2.50;;;21.50;45.50;;;;;;5117016;28;20099;-42
2023/12/13 12:16:19;;;;;;;3.55;2.65;;;21.40;45.60;;;;;;5120764;28;20027;-40
2023/12/13 12:18:45;;;;;;;;;;;21.50;45.70;;;;;;5118382;28;20042;-40
2023/12/13 12:21:11;;;;;;;4.90;2.50;;;21.50;45.50;;;;;;5117291;28;19912;-40
2023/12/13 12:23:42;;;;;;;5.53;2.97;;;21.50;45.40;;;;;;5113715;28;20069;-40
2023/12/13 12:26:09;;;;;;;3.80;2.50;;;21.40;45.50;;;;;;5095167;28;20039;-40
2023/12/13 12:28:38;;;;;;;4.32;2.80;;;21.40;45.40;;;;;;5116063;28;20041;-42
2023/12/13 12:31:04;;;;;;;3.28;2.80;;;21.40;45.20;;;;;;5120036;28;20748;-41
2023/12/13 12:33:30;;;;;;;3.53;2.63;;;21.30;45.40;;;;;;5120638;28;20665;-41
2023/12/13 12:35:59;;;;;;;2.80;2.40;;;21.30;46.10;;;;;;5117794;27;20123;-41
2023/12/13 12:38:25;;;;;;;3.78;2.60;;;21.20;45.60;;;;;;5114276;28;20036;-41
2023/12/13 12:40:51;;;;;;;2.67;2.35;;;21.20;45.40;;;;;;5114642;28;20035;-40
2023/12/13 12:43:21;;;;;;;3.30;2.55;;;21.20;45.30;;;;;;5112238;28;20042;-40
2023/12/13 12:45:47;;;;;;;3.00;2.42;;;21.30;45.50;;;;;;5109430;28;20020;-40